Time;durP1;ratioP1;P1;durP2;ratioP2;P2;SDS_P1;SDS_P2;PMS_P1;PMS_P2;Temp;Humidity;BMP_temperature;BMP_pressure;BME280_temperature;BME280_humidity;BME280_pressure;Samples;Min_cycle;Max_cycle;Signal;HPM_P1;HPM_P2
2024/04/25 00:01:45;;;;;;;;;;;17.50;50.10;;;;;;5489063;26;19960;-69
2024/04/25 00:04:11;;;;;;;;;;;17.50;50.50;;;;;;5488454;26;20258;-69
2024/04/25 00:06:36;;;;;;;;;;;17.40;50.20;;;;;;5489170;26;20294;-69
2024/04/25 00:09:02;;;;;;;;;;;17.50;50.30;;;;;;5488681;26;19927;-69
2024/04/25 00:11:28;;;;;;;;;;;17.40;50.50;;;;;;5489070;26;19971;-69
2024/04/25 00:13:56;;;;;;;;;;;17.40;50.50;;;;;;5488940;26;19938;-69
2024/04/25 00:16:22;;;;;;;;;;;17.40;49.00;;;;;;5489633;26;19996;-69
2024/04/25 00:18:48;;;;;;;;;;;17.40;50.40;;;;;;5489005;26;20363;-69
2024/04/25 00:21:13;;;;;;;;;;;17.40;50.50;;;;;;5488696;26;19928;-69
2024/04/25 00:23:39;;;;;;;;;;;17.50;50.50;;;;;;5488960;26;20270;-68
2024/04/25 00:26:05;;;;;;;;;;;17.40;51.20;;;;;;5489260;26;19936;-69
2024/04/25 00:28:31;;;;;;;;;;;17.40;50.80;;;;;;5488337;26;19954;-68
2024/04/25 00:30:56;;;;;;;;;;;17.20;50.60;;;;;;5488726;26;19928;-69
2024/04/25 00:33:22;;;;;;;;;;;17.40;50.50;;;;;;5488583;26;19928;-69
2024/04/25 00:35:48;;;;;;;;;;;17.40;50.70;;;;;;5488671;26;19935;-69
2024/04/25 00:38:13;;;;;;;;;;;17.80;50.60;;;;;;5488961;26;19928;-69
2024/04/25 00:40:39;;;;;;;;;;;17.50;51.00;;;;;;5488509;26;19960;-69
2024/04/25 00:43:04;;;;;;;;;;;17.40;50.70;;;;;;5488880;26;19940;-69
2024/04/25 00:45:32;;;;;;;;;;;17.40;50.70;;;;;;5486562;26;19931;-69
2024/04/25 00:47:59;;;;;;;;;;;17.30;50.40;;;;;;5488790;26;19928;-69
2024/04/25 00:50:25;;;;;;;;;;;17.40;50.50;;;;;;5488668;26;20384;-69
2024/04/25 00:52:50;;;;;;;;;;;17.30;50.50;;;;;;5488851;26;19935;-69
2024/04/25 00:55:16;;;;;;;;;;;17.40;50.60;;;;;;5488513;26;19939;-69
2024/04/25 00:57:43;;;;;;;;;;;17.30;50.50;;;;;;5488691;26;19936;-69
2024/04/25 01:00:12;;;;;;;;;;;17.50;50.50;;;;;;5488640;26;19935;-69
2024/04/25 01:02:39;;;;;;;;;;;17.40;50.40;;;;;;5488429;26;20000;-69
2024/04/25 01:05:05;;;;;;;;;;;17.30;50.70;;;;;;5488143;26;19932;-69
2024/04/25 01:07:31;;;;;;;;;;;17.30;50.50;;;;;;5488395;26;19928;-69
2024/04/25 01:09:56;;;;;;;;;;;17.30;51.00;;;;;;5488045;26;19935;-69
2024/04/25 01:12:22;;;;;;;;;;;17.30;50.60;;;;;;5488079;26;19935;-69
2024/04/25 01:14:48;;;;;;;;;;;17.30;50.80;;;;;;5487923;26;19928;-69
2024/04/25 01:17:13;;;;;;;;;;;17.30;50.60;;;;;;5488054;26;20285;-69
2024/04/25 01:19:39;;;;;;;;;;;17.30;50.90;;;;;;5487919;26;19930;-69
2024/04/25 01:22:05;;;;;;;;;;;17.40;50.40;;;;;;5488575;26;20331;-69
2024/04/25 01:24:33;;;;;;;;;;;17.30;50.70;;;;;;5487888;26;19939;-69
2024/04/25 01:26:59;;;;;;;;;;;17.30;50.90;;;;;;5487680;26;19934;-69
2024/04/25 01:29:25;;;;;;;;;;;17.30;50.90;;;;;;5487506;26;19939;-69
2024/04/25 01:31:50;;;;;;;;;;;17.30;50.60;;;;;;5487751;26;19955;-69
2024/04/25 01:34:17;;;;;;;;;;;17.20;50.90;;;;;;5487356;26;19935;-68
2024/04/25 01:36:42;;;;;;;;;;;17.30;50.80;;;;;;5487788;26;19936;-69
2024/04/25 01:39:09;;;;;;;;;;;17.20;51.00;;;;;;5485874;26;19977;-69
2024/04/25 01:41:34;;;;;;;;;;;17.20;50.90;;;;;;5487626;26;19940;-69
2024/04/25 01:44:00;;;;;;;;;;;17.20;50.90;;;;;;5487474;26;20370;-69
2024/04/25 01:46:25;;;;;;;;;;;17.20;50.80;;;;;;5487561;26;20332;-69
2024/04/25 01:48:51;;;;;;;;;;;17.20;51.10;;;;;;5487466;26;20299;-69
2024/04/25 01:51:20;;;;;;;;;;;17.20;50.70;;;;;;5487913;26;19931;-69
2024/04/25 01:53:46;;;;;;;;;;;17.20;50.90;;;;;;5487431;26;20426;-69
2024/04/25 01:56:12;;;;;;;;;;;17.20;50.90;;;;;;5487266;26;19928;-68
2024/04/25 01:58:37;;;;;;;;;;;17.20;50.70;;;;;;5487527;26;19931;-69
2024/04/25 02:01:03;;;;;;;;;;;17.20;50.90;;;;;;5487010;26;20418;-69
2024/04/25 02:03:28;;;;;;;;;;;17.30;50.30;;;;;;5486389;26;19935;-69
2024/04/25 02:05:54;;;;;;;;;;;17.20;50.90;;;;;;5487170;26;19928;-69
2024/04/25 02:08:20;;;;;;;;;;;17.20;51.00;;;;;;5485412;26;19934;-69
2024/04/25 02:10:45;;;;;;;;;;;17.20;50.80;;;;;;5486721;26;19977;-69
2024/04/25 02:13:11;;;;;;;;;;;17.20;51.00;;;;;;5487211;26;19932;-69
2024/04/25 02:15:36;;;;;;;;;;;17.20;50.90;;;;;;5486770;26;19928;-69
2024/04/25 02:18:02;;;;;;;;;;;17.20;51.20;;;;;;5487423;26;20323;-69
2024/04/25 02:25:59;;;;;;;;;;;17.20;50.70;;;;;;5486511;26;19935;-69
2024/04/25 02:28:24;;;;;;;;;;;17.10;50.90;;;;;;5486536;26;19928;-69
2024/04/25 02:30:50;;;;;;;;;;;17.10;51.00;;;;;;5486303;26;20331;-68
2024/04/25 02:33:15;;;;;;;;;;;17.10;51.10;;;;;;5486675;26;20366;-69
2024/04/25 02:35:41;;;;;;;;;;;17.20;50.90;;;;;;5486791;26;19928;-69
2024/04/25 02:38:06;;;;;;;;;;;17.10;51.00;;;;;;5486706;26;19995;-69
2024/04/25 02:40:32;;;;;;;;;;;17.10;50.80;;;;;;5486560;26;20231;-68
2024/04/25 02:42:57;;;;;;;;;;;17.10;51.00;;;;;;5486394;26;19975;-69
2024/04/25 02:45:23;;;;;;;;;;;17.10;51.00;;;;;;5486692;26;20286;-68
2024/04/25 02:47:48;;;;;;;;;;;17.10;51.00;;;;;;5485143;26;19932;-69
2024/04/25 02:50:14;;;;;;;;;;;17.10;51.00;;;;;;5487006;26;20312;-69
2024/04/25 02:52:39;;;;;;;;;;;17.00;50.90;;;;;;5490182;26;19935;-69
2024/04/25 02:55:05;;;;;;;;;;;17.10;51.00;;;;;;5490269;26;20064;-69
2024/04/25 02:57:30;;;;;;;;;;;17.10;50.50;;;;;;5490444;26;20366;-69
2024/04/25 02:59:56;;;;;;;;;;;17.10;51.00;;;;;;5490324;26;19972;-68
2024/04/25 03:02:21;;;;;;;;;;;17.10;50.60;;;;;;5490096;26;20248;-69
2024/04/25 03:04:47;;;;;;;;;;;17.10;51.10;;;;;;5489603;26;19928;-69
2024/04/25 03:07:13;;;;;;;;;;;17.10;51.20;;;;;;5489952;26;19935;-69
2024/04/25 03:09:38;;;;;;;;;;;17.10;51.20;;;;;;5489825;26;20319;-69
2024/04/25 03:12:04;;;;;;;;;;;17.10;51.20;;;;;;5490150;26;19928;-69
2024/04/25 03:14:29;;;;;;;;;;;17.10;51.20;;;;;;5490480;26;20223;-69
2024/04/25 03:16:56;;;;;;;;;;;17.10;51.30;;;;;;5489767;26;19928;-69
2024/04/25 03:19:22;;;;;;;;;;;16.80;50.80;;;;;;5489637;26;20468;-68
2024/04/25 03:21:47;;;;;;;;;;;17.10;51.30;;;;;;5490056;26;19935;-69
2024/04/25 03:24:13;;;;;;;;;;;17.10;51.00;;;;;;5489889;26;20231;-69
2024/04/25 03:26:38;;;;;;;;;;;17.00;51.10;;;;;;5490115;26;19996;-69
2024/04/25 03:29:05;;;;;;;;;;;17.10;51.20;;;;;;5489626;26;20270;-69
2024/04/25 03:31:31;;;;;;;;;;;17.10;51.60;;;;;;5489746;26;19928;-69
2024/04/25 03:33:56;;;;;;;;;;;17.00;51.30;;;;;;5489623;26;20000;-69
2024/04/25 03:36:22;;;;;;;;;;;17.00;50.90;;;;;;5489479;26;19935;-69
2024/04/25 03:38:47;;;;;;;;;;;17.10;51.00;;;;;;5489908;26;19928;-69
2024/04/25 03:41:14;;;;;;;;;;;17.00;51.60;;;;;;5489837;26;19935;-69
2024/04/25 03:43:39;;;;;;;;;;;17.00;51.70;;;;;;5490209;26;20359;-69
2024/04/25 03:46:05;;;;;;;;;;;17.00;51.50;;;;;;5489549;26;19935;-69
2024/04/25 03:48:31;;;;;;;;;;;17.00;51.30;;;;;;5489386;26;19935;-69
2024/04/25 03:50:56;;;;;;;;;;;17.00;51.70;;;;;;5489404;26;20363;-69
2024/04/25 03:53:22;;;;;;;;;;;17.00;51.50;;;;;;5489600;26;19964;-69
2024/04/25 03:55:47;;;;;;;;;;;17.00;51.70;;;;;;5489590;26;20082;-69
2024/04/25 03:58:13;;;;;;;;;;;17.00;51.50;;;;;;5489514;26;19928;-69
2024/04/25 04:00:38;;;;;;;;;;;17.00;51.60;;;;;;5489359;26;19928;-69
2024/04/25 04:03:06;;;;;;;;;;;17.10;51.30;;;;;;5487724;26;19928;-69
2024/04/25 04:05:32;;;;;;;;;;;17.00;51.50;;;;;;5488962;26;20027;-69
2024/04/25 04:07:57;;;;;;;;;;;17.00;51.60;;;;;;5488966;26;19927;-69
2024/04/25 04:10:23;;;;;;;;;;;17.70;52.40;;;;;;5488521;26;19956;-68
2024/04/25 04:12:48;;;;;;;;;;;17.00;52.10;;;;;;5489290;26;20336;-69
2024/04/25 04:15:15;;;;;;;;;;;17.00;50.90;;;;;;5488204;26;20455;-69
2024/04/25 04:17:41;;;;;;;;;;;17.10;52.00;;;;;;5487066;26;19935;-69
2024/04/25 04:20:06;;;;;;;;;;;17.10;52.00;;;;;;5488745;26;20095;-69
2024/04/25 04:22:32;;;;;;;;;;;17.10;51.90;;;;;;5488889;26;19938;-69
2024/04/25 04:24:57;;;;;;;;;;;17.00;52.30;;;;;;5488442;26;19927;-69
2024/04/25 04:27:23;;;;;;;;;;;17.10;52.30;;;;;;5488614;26;19934;-69
2024/04/25 04:29:49;;;;;;;;;;;17.10;52.10;;;;;;5488536;26;19928;-69
2024/04/25 04:32:15;;;;;;;;;;;17.00;52.20;;;;;;5488378;26;19935;-69
2024/04/25 04:34:44;;;;;;;;;;;17.10;51.90;;;;;;5488146;26;20283;-69
2024/04/25 04:37:10;;;;;;;;;;;17.00;51.90;;;;;;5488313;26;19935;-69
2024/04/25 04:39:36;;;;;;;;;;;17.00;52.10;;;;;;5488256;26;19955;-69
2024/04/25 04:42:02;;;;;;;;;;;17.00;52.10;;;;;;5488941;26;19928;-69
2024/04/25 04:44:28;;;;;;;;;;;17.00;52.40;;;;;;5488289;26;19935;-69
2024/04/25 04:46:53;;;;;;;;;;;17.00;52.30;;;;;;5488362;26;19927;-69
2024/04/25 04:49:19;;;;;;;;;;;17.00;52.20;;;;;;5487869;26;19997;-69
2024/04/25 04:51:44;;;;;;;;;;;17.00;52.20;;;;;;5487722;26;19938;-69
2024/04/25 04:54:10;;;;;;;;;;;17.00;52.30;;;;;;5487822;26;19935;-69
2024/04/25 04:56:37;;;;;;;;;;;17.00;52.10;;;;;;5487836;26;20351;-69
2024/04/25 04:59:02;;;;;;;;;;;17.30;52.60;;;;;;5487677;26;19964;-69
2024/04/25 05:01:28;;;;;;;;;;;17.00;51.80;;;;;;5488035;26;20331;-69
2024/04/25 05:03:53;;;;;;;;;;;17.00;52.50;;;;;;5487532;26;19977;-69
2024/04/25 05:06:19;;;;;;;;;;;17.00;52.20;;;;;;5487942;26;20000;-69
2024/04/25 05:08:44;;;;;;;;;;;17.00;52.00;;;;;;5488213;26;19935;-69
2024/04/25 05:11:10;;;;;;;;;;;17.00;52.10;;;;;;5487569;26;19928;-69
2024/04/25 05:13:36;;;;;;;;;;;17.00;52.00;;;;;;5487398;26;19944;-69
2024/04/25 05:16:01;;;;;;;;;;;16.90;52.00;;;;;;5487716;26;19960;-69
2024/04/25 05:18:27;;;;;;;;;;;16.90;52.10;;;;;;5487312;26;20266;-69
2024/04/25 05:20:52;;;;;;;;;;;16.80;51.70;;;;;;5487691;26;19944;-69
2024/04/25 05:23:18;;;;;;;;;;;16.90;52.20;;;;;;5487856;26;19934;-77
2024/04/25 05:25:43;;;;;;;;;;;17.00;52.30;;;;;;5487868;26;19936;-77
2024/04/25 05:28:09;;;;;;;;;;;16.90;52.00;;;;;;5488026;26;20350;-77
2024/04/25 05:30:34;;;;;;;;;;;16.90;52.20;;;;;;5487506;26;19927;-77
2024/04/25 05:33:02;;;;;;;;;;;16.90;52.10;;;;;;5487712;26;19939;-77
2024/04/25 05:35:28;;;;;;;;;;;16.90;51.90;;;;;;5488093;26;20251;-77
2024/04/25 05:37:53;;;;;;;;;;;17.40;52.40;;;;;;5487836;26;19928;-78
2024/04/25 05:40:18;;;;;;;;;;;16.90;51.90;;;;;;5487512;26;19935;-76
2024/04/25 05:42:44;;;;;;;;;;;16.90;52.10;;;;;;5487676;26;20280;-77
2024/04/25 05:45:15;;;;;;;;;;;17.00;51.90;;;;;;5488043;26;19932;-76
2024/04/25 05:47:41;;;;;;;;;;;16.90;51.70;;;;;;5487833;26;19939;-76
2024/04/25 05:50:07;;;;;;;;;;;16.90;52.30;;;;;;5486500;26;19940;-77
2024/04/25 05:52:33;;;;;;;;;;;17.00;51.80;;;;;;5487963;26;20434;-80
2024/04/25 05:54:58;;;;;;;;;;;16.90;51.70;;;;;;5487839;26;19943;-79
2024/04/25 05:57:24;;;;;;;;;;;16.90;53.00;;;;;;5487458;26;20262;-79
2024/04/25 05:59:49;;;;;;;;;;;16.90;52.40;;;;;;5486899;26;19928;-77
2024/04/25 06:02:15;;;;;;;;;;;16.90;52.30;;;;;;5487088;26;19940;-77
2024/04/25 06:04:42;;;;;;;;;;;16.90;52.50;;;;;;5486333;26;20038;-78
2024/04/25 06:07:08;;;;;;;;;;;16.90;52.40;;;;;;5486928;26;19936;-79
2024/04/25 06:09:34;;;;;;;;;;;16.90;52.40;;;;;;5486652;26;19939;-77
2024/04/25 06:12:00;;;;;;;;;;;16.90;52.30;;;;;;5486621;26;19928;-79
2024/04/25 06:14:25;;;;;;;;;;;16.90;52.10;;;;;;5486924;26;19943;-77
2024/04/25 06:16:51;;;;;;;;;;;16.90;52.20;;;;;;5486827;26;19952;-78
2024/04/25 06:19:17;;;;;;;;;;;16.90;52.30;;;;;;5486785;26;20231;-77
2024/04/25 06:21:43;;;;;;;;;;;16.90;52.50;;;;;;5486466;26;19934;-83
2024/04/25 06:24:09;;;;;;;;;;;16.90;52.30;;;;;;5487430;26;19935;-75
2024/04/25 06:26:35;;;;;;;;;;;16.90;52.40;;;;;;5492554;26;19944;-77
2024/04/25 06:29:01;;;;;;;;;;;16.90;52.50;;;;;;5490475;26;19927;-82
2024/04/25 06:31:26;;;;;;;;;;;16.90;52.20;;;;;;5491386;26;20000;-76
2024/04/25 06:33:59;;;;;;;;;;;17.00;52.00;;;;;;5490486;26;19936;-75
2024/04/25 06:36:25;;;;;;;;;;;18.60;53.10;;;;;;5490147;26;19981;-77
2024/04/25 06:38:51;;;;;;;;;;;16.90;52.40;;;;;;5490134;26;19940;-82
2024/04/25 06:41:16;;;;;;;;;;;16.90;52.50;;;;;;5489852;26;19928;-79
2024/04/25 06:43:42;;;;;;;;;;;16.90;52.70;;;;;;5489600;26;19928;-80
2024/04/25 06:46:07;;;;;;;;;;;16.90;52.50;;;;;;5489661;26;19932;-81
2024/04/25 06:48:33;;;;;;;;;;;16.90;52.60;;;;;;5498340;26;20000;-79
2024/04/25 06:51:01;;;;;;;;;;;16.90;52.50;;;;;;5493778;26;19932;-78
2024/04/25 06:53:26;;;;;;;;;;;16.90;52.40;;;;;;5489524;26;19947;-81
2024/04/25 06:55:54;;;;;;;;;;;16.90;52.70;;;;;;5489267;26;19928;-78
2024/04/25 06:58:19;;;;;;;;;;;16.90;52.50;;;;;;5489531;26;19928;-76
2024/04/25 07:00:45;;;;;;;;;;;16.90;52.40;;;;;;5490087;26;19927;-85
2024/04/25 07:03:12;;;;;;;;;;;17.00;52.10;;;;;;5457001;26;20006;-76
2024/04/25 07:05:38;;;;;;;;;;;16.90;52.60;;;;;;5489590;26;19935;-78
2024/04/25 07:08:04;;;;;;;;;;;16.90;52.50;;;;;;5489577;26;19928;-74
2024/04/25 07:10:29;;;;;;;;;;;16.90;52.00;;;;;;5489089;26;20017;-75
2024/04/25 07:12:55;;;;;;;;;;;16.90;52.50;;;;;;5489607;26;19938;-74
2024/04/25 07:15:24;;;;;;;;;;;16.90;52.30;;;;;;5489262;26;19935;-73
2024/04/25 07:17:51;;;;;;;;;;;16.90;52.40;;;;;;5488636;26;19927;-74
2024/04/25 07:20:16;;;;;;;;;;;16.60;52.10;;;;;;5489362;26;19939;-75
2024/04/25 07:22:42;;;;;;;;;;;16.90;52.40;;;;;;5489311;26;20351;-74
2024/04/25 07:25:11;;;;;;;;;;;16.90;52.40;;;;;;5489210;26;19939;-76
2024/04/25 07:27:37;;;;;;;;;;;16.90;52.50;;;;;;5489152;26;19928;-76
2024/04/25 07:30:03;;;;;;;;;;;16.90;52.20;;;;;;5488774;26;19928;-76
2024/04/25 07:32:28;;;;;;;;;;;16.90;52.30;;;;;;5489073;26;20350;-71
2024/04/25 07:34:54;;;;;;;;;;;17.40;52.60;;;;;;5489181;26;19940;-69
2024/04/25 07:37:23;;;;;;;;;;;16.90;52.20;;;;;;5487311;26;19935;-70
2024/04/25 07:39:49;;;;;;;;;;;16.90;52.40;;;;;;5488907;26;20353;-71
2024/04/25 07:42:15;;;;;;;;;;;17.20;52.20;;;;;;5488831;26;19956;-70
2024/04/25 07:44:41;;;;;;;;;;;16.90;52.20;;;;;;5489045;26;19928;-70
2024/04/25 07:47:08;;;;;;;;;;;17.30;52.30;;;;;;5488898;26;19934;-70
2024/04/25 07:49:33;;;;;;;;;;;16.90;51.90;;;;;;5488897;26;19928;-78
2024/04/25 07:51:59;;;;;;;;;;;16.90;52.00;;;;;;5488663;26;20220;-79
2024/04/25 07:54:24;;;;;;;;;;;17.00;52.50;;;;;;5488593;26;19928;-76
2024/04/25 07:56:50;;;;;;;;;;;16.90;52.20;;;;;;5488986;26;19932;-77
2024/04/25 07:59:15;;;;;;;;;;;16.90;52.40;;;;;;5488822;26;19928;-78
2024/04/25 08:01:41;;;;;;;;;;;17.00;51.80;;;;;;5488498;26;19928;-76
2024/04/25 08:04:07;;;;;;;;;;;17.00;52.10;;;;;;5486267;26;19928;-76
2024/04/25 08:06:34;;;;;;;;;;;17.00;52.20;;;;;;5487940;26;19928;-79
2024/04/25 08:09:00;;;;;;;;;;;16.90;52.20;;;;;;5488347;26;19928;-76
2024/04/25 08:11:25;;;;;;;;;;;17.00;52.60;;;;;;5488308;26;20299;-76
2024/04/25 08:13:51;;;;;;;;;;;17.00;52.50;;;;;;5487816;26;19935;-76
2024/04/25 08:16:16;;;;;;;;;;;17.00;52.30;;;;;;5488167;26;19928;-76
2024/04/25 08:18:43;;;;;;;;;;;17.00;52.20;;;;;;5488513;26;20037;-76
2024/04/25 08:21:08;;;;;;;;;;;17.00;52.30;;;;;;5487993;26;20000;-76
2024/04/25 08:23:34;;;;;;;;;;;17.00;52.40;;;;;;5488043;26;19936;-76
2024/04/25 08:25:59;;;;;;;;;;;17.00;52.60;;;;;;5488054;26;20564;-76
2024/04/25 08:28:25;;;;;;;;;;;17.00;52.50;;;;;;5487572;26;19931;-77
2024/04/25 08:30:51;;;;;;;;;;;17.20;52.60;;;;;;5487592;26;20019;-77
2024/04/25 08:33:18;;;;;;;;;;;17.00;52.30;;;;;;5487807;26;19932;-78
2024/04/25 08:35:44;;;;;;;;;;;17.00;52.00;;;;;;5492967;26;19928;-82
2024/04/25 08:38:10;;;;;;;;;;;17.10;52.50;;;;;;5489379;26;19928;-88
2024/04/25 08:40:36;;;;;;;;;;;17.10;51.80;;;;;;5488174;26;19936;-76
2024/04/25 08:43:02;;;;;;;;;;;17.10;52.80;;;;;;5487836;26;19931;-75
2024/04/25 08:45:30;;;;;;;;;;;17.10;53.10;;;;;;5487717;26;19928;-73
2024/04/25 08:47:56;;;;;;;;;;;17.10;52.00;;;;;;5487232;26;20398;-75
2024/04/25 08:50:22;;;;;;;;;;;17.00;52.00;;;;;;5487341;26;20495;-75
2024/04/25 08:52:49;;;;;;;;;;;17.10;52.10;;;;;;5487191;26;19943;-75
2024/04/25 08:55:17;;;;;;;;;;;17.10;52.10;;;;;;5487485;26;19928;-75
2024/04/25 08:57:43;;;;;;;;;;;17.10;52.30;;;;;;5487632;26;20374;-73
2024/04/25 09:00:09;;;;;;;;;;;17.10;52.20;;;;;;5487730;26;19935;-74
2024/04/25 09:02:35;;;;;;;;;;;17.10;51.80;;;;;;5486987;26;19928;-75
2024/04/25 09:05:01;;;;;;;;;;;17.10;52.40;;;;;;5487397;26;19928;-75
2024/04/25 09:07:27;;;;;;;;;;;17.10;52.20;;;;;;5487633;26;19936;-73
2024/04/25 09:09:58;;;;;;;;;;;17.10;52.20;;;;;;5487786;26;19928;-73
2024/04/25 09:12:31;;;;;;;;;;;17.20;50.20;;;;;;5487911;26;20266;-72
2024/04/25 09:14:58;;;;;;;;;;;17.20;50.40;;;;;;5487933;26;20064;-74
2024/04/25 09:17:24;;;;;;;;;;;17.20;52.00;;;;;;5487488;26;19939;-73
2024/04/25 09:19:51;;;;;;;;;;;17.10;52.30;;;;;;5487734;26;20004;-73
2024/04/25 09:22:16;;;;;;;;;;;17.60;52.40;;;;;;5487723;26;20262;-73
2024/04/25 09:24:42;;;;;;;;;;;17.20;52.40;;;;;;5487721;26;19928;-73
2024/04/25 09:27:07;;;;;;;;;;;17.20;52.10;;;;;;5487598;26;19956;-73
2024/04/25 09:29:34;;;;;;;;;;;17.20;52.20;;;;;;5487456;26;19959;-73
2024/04/25 09:31:59;;;;;;;;;;;17.20;52.00;;;;;;5487654;26;20223;-73
2024/04/25 09:34:26;;;;;;;;;;;17.20;52.10;;;;;;5486079;26;19928;-73
2024/04/25 09:36:52;;;;;;;;;;;17.00;51.80;;;;;;5487863;26;19963;-74
2024/04/25 09:39:18;;;;;;;;;;;17.20;52.10;;;;;;5487715;26;20000;-73
2024/04/25 09:41:44;;;;;;;;;;;17.20;51.70;;;;;;5487826;26;19928;-74
2024/04/25 09:44:10;;;;;;;;;;;16.90;51.90;;;;;;5487124;26;19956;-74
2024/04/25 09:46:40;;;;;;;;;;;17.20;51.80;;;;;;5487409;26;19937;-74
2024/04/25 09:49:06;;;;;;;;;;;17.30;51.70;;;;;;5487291;26;19936;-75
2024/04/25 09:51:32;;;;;;;;;;;17.20;51.70;;;;;;5487210;26;20369;-75
2024/04/25 09:53:58;;;;;;;;;;;17.60;51.90;;;;;;5487436;26;19996;-74
2024/04/25 09:56:25;;;;;;;;;;;17.20;51.50;;;;;;5487358;26;19928;-74
2024/04/25 09:58:54;;;;;;;;;;;17.20;51.80;;;;;;5487100;26;20370;-77
2024/04/25 10:01:20;;;;;;;;;;;17.20;49.60;;;;;;5489458;26;19928;-75
2024/04/25 10:03:46;;;;;;;;;;;17.30;51.10;;;;;;5494709;26;20030;-74
2024/04/25 10:06:13;;;;;;;;;;;17.30;51.40;;;;;;5490825;26;19928;-76
2024/04/25 10:08:39;;;;;;;;;;;17.20;51.30;;;;;;5490986;26;20373;-73
2024/04/25 10:11:05;;;;;;;;;;;17.20;51.40;;;;;;5490841;26;19973;-75
2024/04/25 10:13:31;;;;;;;;;;;17.20;51.50;;;;;;5490215;26;19964;-76
2024/04/25 10:15:58;;;;;;;;;;;16.70;51.40;;;;;;5490107;26;20350;-75
2024/04/25 10:18:23;;;;;;;;;;;17.20;51.40;;;;;;5490818;26;19935;-68
2024/04/25 10:20:59;;;;;;;;;;;17.20;51.20;;;;;;5490113;26;19928;-73
2024/04/25 10:23:32;;;;;;;;;;;17.20;49.50;;;;;;5490297;26;19928;-71
2024/04/25 10:25:58;;;;;;;;;;;17.40;49.50;;;;;;5490272;26;20118;-71
2024/04/25 10:28:23;;;;;;;;;;;17.30;51.40;;;;;;5490104;26;19935;-73
2024/04/25 10:30:54;;;;;;;;;;;17.30;51.80;;;;;;5490052;26;19996;-72
2024/04/25 10:33:20;;;;;;;;;;;17.70;49.40;;;;;;5490046;26;19938;-71
2024/04/25 10:35:47;;;;;;;;;;;17.30;51.20;;;;;;5490217;26;19928;-71
2024/04/25 10:38:19;;;;;;;;;;;17.30;51.10;;;;;;5489931;26;19936;-75
2024/04/25 10:40:45;;;;;;;;;;;17.60;49.40;;;;;;5489966;26;19928;-75
2024/04/25 10:43:10;;;;;;;;;;;17.30;51.20;;;;;;5490110;26;19996;-79
2024/04/25 10:45:36;;;;;;;;;;;17.30;51.40;;;;;;5490062;26;19928;-81
2024/04/25 10:48:02;;;;;;;;;;;17.30;51.30;;;;;;5490478;26;19935;-79
2024/04/25 10:50:29;;;;;;;;;;;17.30;51.10;;;;;;5490562;26;19928;-79
2024/04/25 10:52:55;;;;;;;;;;;17.30;51.00;;;;;;5489759;26;19927;-78
2024/04/25 10:55:21;;;;;;;;;;;17.30;51.20;;;;;;5490461;26;20038;-70
2024/04/25 10:57:47;;;;;;;;;;;17.30;51.10;;;;;;5489756;26;20378;-69
2024/04/25 11:00:13;;;;;;;;;;;17.30;51.30;;;;;;5487836;26;20250;-70
2024/04/25 11:02:39;;;;;;;;;;;17.30;50.60;;;;;;5488937;26;19928;-70
2024/04/25 11:05:05;;;;;;;;;;;17.30;51.10;;;;;;5486748;26;19932;-70
2024/04/25 11:07:30;;;;;;;;;;;17.30;50.80;;;;;;5487328;26;20387;-69
2024/04/25 11:09:56;;;;;;;;;;;16.60;50.60;;;;;;5488870;26;19928;-71
2024/04/25 11:12:22;;;;;;;;;;;17.30;50.90;;;;;;5488878;26;19927;-70
2024/04/25 11:14:48;;;;;;;;;;;17.30;50.70;;;;;;5489543;26;20388;-70
2024/04/25 11:17:14;;;;;;;;;;;17.30;50.90;;;;;;5488948;26;20406;-70
2024/04/25 11:19:43;;;;;;;;;;;17.30;50.80;;;;;;5490148;26;20001;-70
2024/04/25 11:22:12;;;;;;;;;;;17.30;50.40;;;;;;5487787;26;19935;-71
2024/04/25 11:24:38;;;;;;;;;;;17.20;49.40;;;;;;5489486;26;19928;-71
2024/04/25 11:27:06;;;;;;;;;;;17.30;50.30;;;;;;5488964;26;19935;-70
2024/04/25 11:29:32;;;;;;;;;;;17.20;50.70;;;;;;5489535;26;19997;-70
2024/04/25 11:31:58;;;;;;;;;;;17.20;50.70;;;;;;5488813;26;19935;-70
2024/04/25 11:34:25;;;;;;;;;;;17.30;50.80;;;;;;5488809;26;19997;-70
2024/04/25 11:36:57;;;;;;;;;;;17.30;50.60;;;;;;5488540;26;19935;-70
2024/04/25 11:39:23;;;;;;;;;;;17.20;48.60;;;;;;5488432;26;19996;-71
2024/04/25 11:41:49;;;;;;;;;;;17.30;50.10;;;;;;5488427;26;20327;-71
2024/04/25 11:44:15;;;;;;;;;;;17.30;50.30;;;;;;5488655;26;20339;-70
2024/04/25 11:46:41;;;;;;;;;;;17.50;50.00;;;;;;5486949;26;20270;-71
2024/04/25 11:49:06;;;;;;;;;;;17.50;49.80;;;;;;5488156;26;19928;-70
2024/04/25 11:51:32;;;;;;;;;;;17.60;49.70;;;;;;5488481;26;19951;-70
2024/04/25 11:53:59;;;;;;;;;;;17.70;49.10;;;;;;5488234;26;19962;-71
2024/04/25 11:56:28;;;;;;;;;;;17.80;49.30;;;;;;5488706;26;19927;-71
2024/04/25 11:58:56;;;;;;;;;;;17.80;49.20;;;;;;5488549;26;19935;-71
2024/04/25 12:01:21;;;;;;;;;;;17.90;47.50;;;;;;5488628;26;19939;-71
2024/04/25 12:03:47;;;;;;;;;;;18.10;48.30;;;;;;5487997;26;20423;-71
2024/04/25 12:06:13;;;;;;;;;;;18.10;49.00;;;;;;5488164;26;19996;-71
2024/04/25 12:08:40;;;;;;;;;;;18.80;48.70;;;;;;5488597;26;20298;-70
2024/04/25 12:11:06;;;;;;;;;;;18.30;48.50;;;;;;5487884;26;19936;-71
2024/04/25 12:13:32;;;;;;;;;;;18.40;48.50;;;;;;5488034;26;20349;-71
2024/04/25 12:15:58;;;;;;;;;;;18.40;48.20;;;;;;5488033;26;19928;-71
2024/04/25 12:18:28;;;;;;;;;;;18.50;48.00;;;;;;5486220;26;19959;-73
2024/04/25 12:20:54;;;;;;;;;;;18.40;46.60;;;;;;5488384;26;20020;-71
2024/04/25 12:23:21;;;;;;;;;;;18.40;47.80;;;;;;5487053;26;20225;-71
2024/04/25 12:25:49;;;;;;;;;;;18.30;48.20;;;;;;5487984;26;19996;-71
2024/04/25 12:28:15;;;;;;;;;;;18.30;48.20;;;;;;5488168;26;19996;-71
2024/04/25 12:30:42;;;;;;;;;;;18.30;48.20;;;;;;5487754;26;20262;-71
2024/04/25 12:33:08;;;;;;;;;;;18.30;48.70;;;;;;5487754;26;20000;-71
2024/04/25 12:35:36;;;;;;;;;;;18.20;48.80;;;;;;5487702;26;20366;-71
2024/04/25 12:38:05;;;;;;;;;;;18.20;49.10;;;;;;5487676;26;19936;-71
2024/04/25 12:40:30;;;;;;;;;;;18.20;48.60;;;;;;5487718;26;19928;-72
2024/04/25 12:42:57;;;;;;;;;;;18.10;48.60;;;;;;5488132;26;19928;-72
2024/04/25 12:45:32;;;;;;;;;;;18.10;48.30;;;;;;5487953;26;20268;-70
2024/04/25 12:47:58;;;;;;;;;;;18.10;49.30;;;;;;5487918;26;19936;-71
2024/04/25 12:50:24;;;;;;;;;;;18.00;48.70;;;;;;5487647;26;19932;-71
2024/04/25 12:52:49;;;;;;;;;;;18.00;49.10;;;;;;5487324;26;19977;-72
2024/04/25 12:55:15;;;;;;;;;;;18.00;49.30;;;;;;5488681;26;19928;-72
2024/04/25 12:57:40;;;;;;;;;;;17.90;48.90;;;;;;5487295;26;19932;-71
2024/04/25 13:00:07;;;;;;;;;;;17.90;48.70;;;;;;5487531;26;19935;-73
2024/04/25 13:02:33;;;;;;;;;;;18.00;48.70;;;;;;5488343;26;20010;-71
2024/04/25 13:04:59;;;;;;;;;;;17.90;49.30;;;;;;5487544;26;19935;-71
2024/04/25 13:07:24;;;;;;;;;;;17.90;49.30;;;;;;5487490;26;19944;-71
2024/04/25 13:09:50;;;;;;;;;;;17.90;49.20;;;;;;5485692;26;19943;-73
2024/04/25 13:12:15;;;;;;;;;;;18.00;49.20;;;;;;5487361;26;19928;-72
2024/04/25 13:14:41;;;;;;;;;;;18.00;49.30;;;;;;5487470;26;19928;-73
2024/04/25 13:17:06;;;;;;;;;;;18.00;49.00;;;;;;5487334;26;20000;-72
2024/04/25 13:19:32;;;;;;;;;;;18.00;48.90;;;;;;5487383;26;20442;-72
2024/04/25 13:21:58;;;;;;;;;;;18.00;48.70;;;;;;5485690;26;19931;-72
2024/04/25 13:24:23;;;;;;;;;;;17.60;48.70;;;;;;5487989;26;19995;-72
2024/04/25 13:26:49;;;;;;;;;;;17.90;49.20;;;;;;5487251;26;19928;-73
2024/04/25 13:29:15;;;;;;;;;;;17.90;48.80;;;;;;5487729;26;19932;-72
2024/04/25 13:31:41;;;;;;;;;;;18.00;49.00;;;;;;5487584;26;19939;-72
2024/04/25 13:34:08;;;;;;;;;;;17.90;49.00;;;;;;5487120;26;19935;-72
2024/04/25 13:36:33;;;;;;;;;;;17.90;48.80;;;;;;5487638;26;19928;-72
2024/04/25 13:38:59;;;;;;;;;;;17.90;48.80;;;;;;5487963;26;20045;-70
2024/04/25 13:41:24;;;;;;;;;;;17.90;49.10;;;;;;5487243;26;19935;-71
2024/04/25 13:43:50;;;;;;;;;;;17.90;49.00;;;;;;5487257;26;19928;-71
2024/04/25 13:46:15;;;;;;;;;;;17.90;48.60;;;;;;5487081;26;20000;-71
2024/04/25 13:48:41;;;;;;;;;;;17.90;49.10;;;;;;5486856;26;19934;-71
2024/04/25 13:51:06;;;;;;;;;;;17.80;49.20;;;;;;5486849;26;19928;-71
2024/04/25 13:53:32;;;;;;;;;;;17.80;50.00;;;;;;5486876;26;19954;-70
2024/04/25 13:55:57;;;;;;;;;;;17.70;49.60;;;;;;5486695;26;19977;-70
2024/04/25 13:58:23;;;;;;;;;;;17.70;49.30;;;;;;5486697;26;19928;-69
2024/04/25 14:00:50;;;;;;;;;;;17.70;49.20;;;;;;5486651;26;19932;-69
2024/04/25 14:03:15;;;;;;;;;;;17.80;48.80;;;;;;5484369;26;20390;-69
2024/04/25 14:05:41;;;;;;;;;;;17.70;49.30;;;;;;5486618;26;19936;-69
2024/04/25 14:08:06;;;;;;;;;;;17.70;49.50;;;;;;5486378;26;20003;-70
2024/04/25 14:10:32;;;;;;;;;;;17.70;48.90;;;;;;5486260;26;19997;-69
2024/04/25 14:12:57;;;;;;;;;;;17.60;49.10;;;;;;5486118;26;20278;-71
2024/04/25 14:15:23;;;;;;;;;;;17.70;49.40;;;;;;5486175;26;19935;-70